createdAt,value
2016-08-28T00:00:14.489Z,23.40
2016-08-28T00:01:12.311Z,23.35
2016-08-28T00:02:20.953Z,23.34
2016-08-28T00:03:12.708Z,23.33
2016-08-28T00:04:13.055Z,23.32
2016-08-28T00:05:14.348Z,23.32
2016-08-28T00:06:13.758Z,23.32
2016-08-28T00:07:16.395Z,23.32
2016-08-28T00:08:31.925Z,23.30
2016-08-28T00:09:17.440Z,23.33
2016-08-28T00:10:16.281Z,23.33
2016-08-28T00:11:19.737Z,23.33
2016-08-28T00:12:16.593Z,23.34
2016-08-28T00:13:16.784Z,23.37
2016-08-28T00:14:13.364Z,23.34
2016-08-28T00:15:12.082Z,23.32
2016-08-28T00:16:11.602Z,23.85
2016-08-28T00:17:14.583Z,23.84
2016-08-28T00:18:13.286Z,23.77
2016-08-28T00:19:14.243Z,23.70
2016-08-28T00:20:12.604Z,23.67
2016-08-28T00:21:16.874Z,23.63
2016-08-28T00:22:22.298Z,23.61
2016-08-28T00:23:21.595Z,23.59
2016-08-28T00:24:13.552Z,23.57
2016-08-28T00:25:22.354Z,23.53
2016-08-28T00:26:16.756Z,23.15
2016-08-28T00:27:16.564Z,22.99
2016-08-28T00:28:23.324Z,22.90
2016-08-28T00:29:23.100Z,22.83
2016-08-28T00:30:18.912Z,22.82
2016-08-28T00:31:31.894Z,22.81
2016-08-28T00:32:36.444Z,22.78
2016-08-28T00:33:33.673Z,22.81
2016-08-28T00:34:35.108Z,22.80
2016-08-28T00:35:13.568Z,22.81
2016-08-28T00:36:21.111Z,22.75
2016-08-28T00:37:34.117Z,22.73
2016-08-28T00:38:34.768Z,22.70
2016-08-28T00:39:38.745Z,22.70
2016-08-28T00:40:28.599Z,22.66
2016-08-28T00:41:49.513Z,22.64
2016-08-28T00:42:38.145Z,22.61
2016-08-28T00:43:41.522Z,22.65
2016-08-28T00:44:33.164Z,22.69
2016-08-28T00:45:45.450Z,22.74
2016-08-28T00:46:36.372Z,22.75
2016-08-28T00:47:44.939Z,22.72
2016-08-28T00:49:44.352Z,22.67
2016-08-28T00:50:33.499Z,22.67
2016-08-28T00:51:32.989Z,22.68
2016-08-28T00:52:35.804Z,22.74
2016-08-28T00:53:22.816Z,22.76
2016-08-28T00:54:43.396Z,22.80
2016-08-28T00:55:31.540Z,22.84
2016-08-28T00:56:38.657Z,22.87
2016-08-28T00:57:44.668Z,22.91
2016-08-28T00:58:28.935Z,22.93
2016-08-28T00:59:31.826Z,22.99
2016-08-28T01:00:31.525Z,22.98
2016-08-28T01:01:41.258Z,22.99
2016-08-28T01:02:30.239Z,23.00
2016-08-28T01:03:38.681Z,23.01
2016-08-28T01:04:23.751Z,23.02
2016-08-28T01:05:30.828Z,23.03
2016-08-28T01:06:32.997Z,23.03
2016-08-28T01:07:21.577Z,23.04
2016-08-28T01:08:22.172Z,23.05
2016-08-28T01:09:33.327Z,23.05
2016-08-28T01:10:29.616Z,23.06
2016-08-28T01:11:33.136Z,23.06
2016-08-28T01:12:41.904Z,23.07
2016-08-28T01:13:43.837Z,23.09
2016-08-28T01:14:39.902Z,23.09
2016-08-28T01:15:32.923Z,23.09
2016-08-28T01:16:37.492Z,23.08
2016-08-28T01:17:37.977Z,23.09
2016-08-28T01:18:38.799Z,23.09
2016-08-28T01:19:50.114Z,23.10
2016-08-28T01:20:33.244Z,23.11
2016-08-28T01:21:33.832Z,23.10
2016-08-28T01:22:36.541Z,23.10
2016-08-28T01:23:36.754Z,23.11
2016-08-28T01:24:38.558Z,23.10
2016-08-28T01:25:38.645Z,23.11
2016-08-28T01:26:41.095Z,23.11
2016-08-28T01:27:33.484Z,23.11
2016-08-28T01:28:29.000Z,23.14
2016-08-28T01:29:38.871Z,23.12
2016-08-28T01:30:44.757Z,23.12
2016-08-28T01:31:38.969Z,23.12
2016-08-28T01:32:20.416Z,23.13
2016-08-28T01:33:31.766Z,23.13
2016-08-28T01:34:23.056Z,23.13
2016-08-28T01:35:35.136Z,23.13
2016-08-28T01:36:39.352Z,23.13
2016-08-28T01:37:32.187Z,23.13
2016-08-28T01:38:34.968Z,23.14
2016-08-28T01:39:28.226Z,23.13
2016-08-28T01:40:33.993Z,23.13
2016-08-28T01:41:38.836Z,23.13
2016-08-28T01:42:34.689Z,23.14
2016-08-28T01:43:28.649Z,23.14
2016-08-28T01:44:35.894Z,23.13
2016-08-28T01:45:33.093Z,23.13
2016-08-28T01:46:37.559Z,23.14
2016-08-28T01:47:29.246Z,23.12
2016-08-28T01:48:33.609Z,23.13
2016-08-28T01:49:39.590Z,23.13
2016-08-28T01:50:38.282Z,23.13
2016-08-28T01:51:34.458Z,23.13
2016-08-28T01:52:31.870Z,23.13
2016-08-28T01:53:33.053Z,23.20
2016-08-28T01:54:25.574Z,23.13
2016-08-28T01:55:30.279Z,23.15
2016-08-28T01:56:38.759Z,23.13
2016-08-28T01:57:48.726Z,23.13
2016-08-28T01:58:43.756Z,23.13
2016-08-28T01:59:28.298Z,23.13
2016-08-28T02:00:32.888Z,23.13
2016-08-28T02:01:38.228Z,23.13
2016-08-28T02:02:29.057Z,23.14
2016-08-28T02:03:33.869Z,23.13
2016-08-28T02:04:24.649Z,23.13
2016-08-28T02:05:33.078Z,23.13
2016-08-28T02:06:41.141Z,23.13
2016-08-28T02:07:34.393Z,23.13
2016-08-28T02:08:22.740Z,23.13
2016-08-28T02:09:38.922Z,23.13
2016-08-28T02:10:31.936Z,23.17
2016-08-28T02:11:32.854Z,23.13
2016-08-28T02:12:37.013Z,23.12
2016-08-28T02:13:41.432Z,23.13
2016-08-28T02:14:39.436Z,23.13
2016-08-28T02:15:37.354Z,23.14
2016-08-28T02:16:28.753Z,23.13
2016-08-28T02:17:21.112Z,23.13
2016-08-28T02:18:38.793Z,23.13
2016-08-28T02:19:30.402Z,23.12
2016-08-28T02:20:30.524Z,23.13
2016-08-28T02:21:29.580Z,23.13
2016-08-28T02:22:32.127Z,23.13
2016-08-28T02:23:28.131Z,23.13
2016-08-28T02:24:43.075Z,23.13
2016-08-28T02:25:38.103Z,23.17
2016-08-28T02:26:33.438Z,23.13
2016-08-28T02:27:39.129Z,23.13
2016-08-28T02:28:33.901Z,23.13
2016-08-28T02:29:34.034Z,23.13
2016-08-28T02:30:39.037Z,23.13
2016-08-28T02:31:34.686Z,23.13
2016-08-28T02:32:34.968Z,23.13
2016-08-28T02:33:32.829Z,23.13
2016-08-28T02:34:33.911Z,23.13
2016-08-28T02:35:38.082Z,23.13
2016-08-28T02:36:31.201Z,23.13
2016-08-28T02:37:29.119Z,23.13
2016-08-28T02:38:43.251Z,23.16
2016-08-28T02:39:31.797Z,23.66
2016-08-28T02:40:33.127Z,23.22
2016-08-28T02:41:35.053Z,23.16
2016-08-28T02:42:34.582Z,23.15
2016-08-28T02:43:32.284Z,23.18
2016-08-28T02:44:26.241Z,23.14
2016-08-28T02:45:33.546Z,23.14
2016-08-28T02:46:34.814Z,23.14
2016-08-28T02:47:38.479Z,23.13
2016-08-28T02:48:31.284Z,23.12
2016-08-28T02:49:37.204Z,23.12
2016-08-28T02:50:22.955Z,23.12
2016-08-28T02:51:35.845Z,23.12
2016-08-28T02:52:38.536Z,23.12
2016-08-28T02:53:38.520Z,23.12
2016-08-28T02:54:37.054Z,23.11
2016-08-28T02:55:30.331Z,23.12
2016-08-28T02:56:33.226Z,23.12
2016-08-28T02:57:34.145Z,23.11
2016-08-28T02:58:37.926Z,23.13
2016-08-28T02:59:34.825Z,23.13
2016-08-28T03:00:38.933Z,23.11
2016-08-28T03:01:31.525Z,23.10
2016-08-28T03:02:33.194Z,23.11
2016-08-28T03:03:30.519Z,23.10
2016-08-28T03:04:27.084Z,23.15
2016-08-28T03:05:34.396Z,23.11
2016-08-28T03:06:37.462Z,23.11
2016-08-28T03:07:33.764Z,23.10
2016-08-28T03:08:35.276Z,23.11
2016-08-28T03:09:41.877Z,23.11
2016-08-28T03:10:27.118Z,23.10
2016-08-28T03:11:39.413Z,23.65
2016-08-28T03:12:31.711Z,23.67
2016-08-28T03:13:37.909Z,23.73
2016-08-28T03:14:34.789Z,23.76
2016-08-28T03:15:39.641Z,23.76
2016-08-28T03:16:33.994Z,23.76
2016-08-28T03:17:33.486Z,23.39
2016-08-28T03:18:39.404Z,23.23
2016-08-28T03:19:30.321Z,23.18
2016-08-28T03:20:33.223Z,23.15
2016-08-28T03:21:34.369Z,23.14
2016-08-28T03:22:38.163Z,23.13
2016-08-28T03:23:33.510Z,23.13
2016-08-28T03:24:35.069Z,23.12
2016-08-28T03:25:34.540Z,23.13
2016-08-28T03:26:34.525Z,23.12
2016-08-28T03:27:37.966Z,23.12
2016-08-28T03:28:29.778Z,23.12
2016-08-28T03:29:34.734Z,23.12
2016-08-28T03:30:19.626Z,23.13
2016-08-28T03:31:34.784Z,23.12
2016-08-28T03:32:20.961Z,23.19
2016-08-28T03:33:36.994Z,23.12
2016-08-28T03:34:22.114Z,23.12
2016-08-28T03:35:32.603Z,23.11
2016-08-28T03:36:28.825Z,23.15
2016-08-28T03:37:37.904Z,23.12
2016-08-28T03:38:38.907Z,23.11
2016-08-28T03:39:32.978Z,23.12
2016-08-28T03:40:32.793Z,23.12
2016-08-28T03:41:34.808Z,23.12
2016-08-28T03:42:32.105Z,23.11
2016-08-28T03:43:33.837Z,23.11
2016-08-28T03:44:33.293Z,23.12
2016-08-28T03:45:37.663Z,23.67
2016-08-28T03:46:41.605Z,23.72
2016-08-28T03:47:39.295Z,23.75
2016-08-28T03:48:32.811Z,23.76
2016-08-28T03:49:25.797Z,23.76
2016-08-28T03:50:35.205Z,23.78
2016-08-28T03:51:32.994Z,23.79
2016-08-28T03:52:33.445Z,23.78
2016-08-28T03:53:28.102Z,23.79
2016-08-28T03:54:39.603Z,23.79
2016-08-28T03:55:34.960Z,23.79
2016-08-28T03:56:33.239Z,23.79
2016-08-28T03:57:34.677Z,23.79
2016-08-28T03:58:32.302Z,23.79
2016-08-28T03:59:43.414Z,23.81
2016-08-28T04:00:39.370Z,23.79
2016-08-28T04:01:33.976Z,23.79
2016-08-28T04:02:33.895Z,23.80
2016-08-28T04:03:38.884Z,23.80
2016-08-28T04:04:33.155Z,23.80
2016-08-28T04:05:31.048Z,23.80
2016-08-28T04:06:32.199Z,23.80
2016-08-28T04:07:38.935Z,23.44
2016-08-28T04:08:38.453Z,23.26
2016-08-28T04:09:32.410Z,23.21
2016-08-28T04:10:30.793Z,23.19
2016-08-28T04:11:36.987Z,23.17
2016-08-28T04:12:33.223Z,23.16
2016-08-28T04:13:39.641Z,23.15
2016-08-28T04:14:29.165Z,23.15
2016-08-28T04:15:38.601Z,23.15
2016-08-28T04:16:33.491Z,23.14
2016-08-28T04:17:29.597Z,23.13
2016-08-28T04:18:33.780Z,23.13
2016-08-28T04:19:21.011Z,23.13
2016-08-28T04:20:34.695Z,23.13
2016-08-28T04:21:33.919Z,23.13
2016-08-28T04:22:33.509Z,23.12
2016-08-28T04:23:43.104Z,23.13
2016-08-28T04:24:29.442Z,23.12
2016-08-28T04:25:39.391Z,23.12
2016-08-28T04:26:34.262Z,23.13
2016-08-28T04:27:38.339Z,23.12
2016-08-28T04:28:39.395Z,23.15
2016-08-28T04:29:38.759Z,23.65
2016-08-28T04:30:36.202Z,23.17
2016-08-28T04:31:36.487Z,23.15
2016-08-28T04:32:19.752Z,23.13
2016-08-28T04:33:38.131Z,23.13
2016-08-28T04:34:38.732Z,23.12
2016-08-28T04:35:33.732Z,23.12
2016-08-28T04:36:33.431Z,23.12
2016-08-28T04:37:33.609Z,23.11
2016-08-28T04:38:34.280Z,23.12
2016-08-28T04:39:38.035Z,23.11
2016-08-28T04:40:32.900Z,23.12
2016-08-28T04:41:33.861Z,23.11
2016-08-28T04:42:38.470Z,23.11
2016-08-28T04:43:35.720Z,23.12
2016-08-28T04:44:40.194Z,23.12
2016-08-28T04:45:34.641Z,23.11
2016-08-28T04:46:26.520Z,23.11
2016-08-28T04:47:38.322Z,23.11
2016-08-28T04:48:34.767Z,23.12
2016-08-28T04:49:33.345Z,23.12
2016-08-28T04:50:33.758Z,23.12
2016-08-28T04:51:22.579Z,23.12
2016-08-28T04:52:34.599Z,23.12
2016-08-28T04:53:32.217Z,23.12
2016-08-28T04:54:31.773Z,23.11
2016-08-28T04:55:32.822Z,23.12
2016-08-28T04:56:36.939Z,23.11
2016-08-28T04:57:28.873Z,23.11
2016-08-28T04:58:32.026Z,23.11
2016-08-28T04:59:38.431Z,23.14
2016-08-28T05:00:32.394Z,23.12
2016-08-28T05:01:35.229Z,23.11
2016-08-28T05:02:33.434Z,23.11
2016-08-28T05:03:36.244Z,23.11
2016-08-28T05:04:20.618Z,23.11
2016-08-28T05:05:34.642Z,23.11
2016-08-28T05:06:31.679Z,23.11
2016-08-28T05:07:34.179Z,23.10
2016-08-28T05:08:33.243Z,23.13
2016-08-28T05:09:37.150Z,23.10
2016-08-28T05:10:32.150Z,23.10
2016-08-28T05:11:32.658Z,23.10
2016-08-28T05:12:33.852Z,23.10
2016-08-28T05:13:25.725Z,23.10
2016-08-28T05:14:34.911Z,23.11
2016-08-28T05:15:30.526Z,23.11
2016-08-28T05:16:39.213Z,23.11
2016-08-28T05:17:31.509Z,23.11
2016-08-28T05:18:33.355Z,23.10
2016-08-28T05:19:34.395Z,23.11
2016-08-28T05:20:39.137Z,23.11
2016-08-28T05:21:30.450Z,23.11
2016-08-28T05:22:43.908Z,23.12
2016-08-28T05:23:38.117Z,23.12
2016-08-28T05:24:34.947Z,23.11
2016-08-28T05:25:34.176Z,23.12
2016-08-28T05:26:40.682Z,23.13
2016-08-28T05:27:35.980Z,23.12
2016-08-28T05:28:34.620Z,23.12
2016-08-28T05:29:37.771Z,23.12
2016-08-28T05:30:27.656Z,23.12
2016-08-28T05:31:24.846Z,23.13
2016-08-28T05:32:29.571Z,23.13
2016-08-28T05:33:33.474Z,23.13
2016-08-28T05:34:28.464Z,23.13
2016-08-28T05:35:35.823Z,23.13
2016-08-28T05:36:33.264Z,23.69
2016-08-28T05:37:33.968Z,23.74
2016-08-28T05:38:41.838Z,23.23
2016-08-28T05:39:34.827Z,23.20
2016-08-28T05:40:38.594Z,23.24
2016-08-28T05:41:33.384Z,23.17
2016-08-28T05:42:33.577Z,23.16
2016-08-28T05:43:26.430Z,23.17
2016-08-28T05:44:34.224Z,23.17
2016-08-28T05:45:34.193Z,23.17
2016-08-28T05:46:39.407Z,23.17
2016-08-28T05:47:37.567Z,23.18
2016-08-28T05:48:31.590Z,23.18
2016-08-28T05:49:38.759Z,23.22
2016-08-28T05:50:34.465Z,23.18
2016-08-28T05:51:39.509Z,23.18
2016-08-28T05:52:34.872Z,23.19
2016-08-28T05:53:38.179Z,23.19
2016-08-28T05:54:38.452Z,23.22
2016-08-28T05:55:39.230Z,23.19
2016-08-28T05:56:34.802Z,23.19
2016-08-28T05:57:38.521Z,23.20
2016-08-28T05:58:36.207Z,23.21
2016-08-28T05:59:38.981Z,23.21
2016-08-28T06:00:31.277Z,23.21
2016-08-28T06:01:27.027Z,23.21
2016-08-28T06:02:44.722Z,23.22
2016-08-28T06:03:34.920Z,23.28
2016-08-28T06:04:41.754Z,23.22
2016-08-28T06:05:37.034Z,23.22
2016-08-28T06:06:32.357Z,23.22
2016-08-28T06:07:34.245Z,23.23
2016-08-28T06:08:33.703Z,23.24
2016-08-28T06:09:27.852Z,23.24
2016-08-28T06:10:21.640Z,23.25
2016-08-28T06:11:35.553Z,23.25
2016-08-28T06:12:13.242Z,23.24
2016-08-28T06:13:39.680Z,23.25
2016-08-28T06:14:40.976Z,23.25
2016-08-28T06:15:39.172Z,23.26
2016-08-28T06:16:32.901Z,23.24
2016-08-28T06:17:36.840Z,23.25
2016-08-28T06:18:34.346Z,23.25
2016-08-28T06:19:39.579Z,23.24
2016-08-28T06:20:32.491Z,23.25
2016-08-28T06:21:26.300Z,23.25
2016-08-28T06:22:39.429Z,23.24
2016-08-28T06:23:33.319Z,23.25
2016-08-28T06:24:38.473Z,23.25
2016-08-28T06:25:37.617Z,23.25
2016-08-28T06:26:28.336Z,23.25
2016-08-28T06:27:44.513Z,23.25
2016-08-28T06:28:23.117Z,23.25
2016-08-28T06:29:34.603Z,23.26
2016-08-28T06:30:41.731Z,23.25
2016-08-28T06:31:34.287Z,23.25
2016-08-28T06:32:33.882Z,23.26
2016-08-28T06:33:31.515Z,23.26
2016-08-28T06:34:37.725Z,23.30
2016-08-28T06:35:34.418Z,23.26
2016-08-28T06:36:23.453Z,23.27
2016-08-28T06:37:38.842Z,23.26
2016-08-28T06:38:23.766Z,23.30
2016-08-28T06:39:40.135Z,23.26
2016-08-28T06:40:33.291Z,23.27
2016-08-28T06:41:49.143Z,23.26
2016-08-28T06:42:43.539Z,23.27
2016-08-28T06:43:30.673Z,23.27
2016-08-28T06:44:40.872Z,23.27
2016-08-28T06:45:33.536Z,23.30
2016-08-28T06:46:33.097Z,23.27
2016-08-28T06:47:38.802Z,23.26
2016-08-28T06:48:21.935Z,23.27
2016-08-28T06:49:33.498Z,23.27
2016-08-28T06:50:31.966Z,23.27
2016-08-28T06:51:39.557Z,23.27
2016-08-28T06:52:39.654Z,23.28
2016-08-28T06:53:37.590Z,23.28
2016-08-28T06:54:34.373Z,23.28
2016-08-28T06:55:33.855Z,23.28
2016-08-28T06:56:33.298Z,23.28
2016-08-28T06:57:38.806Z,23.29
2016-08-28T06:58:33.218Z,23.29
2016-08-28T06:59:31.955Z,23.31
2016-08-28T07:00:37.551Z,23.28
2016-08-28T07:01:34.204Z,23.28
2016-08-28T07:02:43.866Z,23.29
2016-08-28T07:03:12.319Z,23.30
2016-08-28T07:04:44.377Z,23.31
2016-08-28T07:05:32.951Z,23.30
2016-08-28T07:06:27.727Z,23.30
2016-08-28T07:07:44.562Z,23.30
2016-08-28T07:08:38.218Z,23.30
2016-08-28T07:09:35.223Z,23.30
2016-08-28T07:10:15.940Z,23.30
2016-08-28T07:11:39.567Z,23.31
2016-08-28T07:12:33.543Z,23.31
2016-08-28T07:13:35.826Z,23.31
2016-08-28T07:14:37.711Z,23.32
2016-08-28T07:15:33.879Z,23.32
2016-08-28T07:16:37.563Z,23.32
2016-08-28T07:17:31.524Z,23.32
2016-08-28T07:18:47.530Z,23.31
2016-08-28T07:19:33.140Z,23.54
2016-08-28T07:20:34.402Z,23.38
2016-08-28T07:21:39.185Z,23.35
2016-08-28T07:22:45.344Z,23.34
2016-08-28T07:23:32.914Z,23.34
2016-08-28T07:24:44.022Z,23.33
2016-08-28T07:25:36.438Z,23.32
2016-08-28T07:26:39.926Z,23.32
2016-08-28T07:27:41.017Z,23.32
2016-08-28T07:28:38.108Z,23.32
2016-08-28T07:29:41.591Z,23.31
2016-08-28T07:30:31.020Z,23.33
2016-08-28T07:31:27.122Z,23.33
2016-08-28T07:32:33.861Z,23.33
2016-08-28T07:33:26.171Z,23.33
2016-08-28T07:34:36.664Z,23.32
2016-08-28T07:35:43.038Z,23.33
2016-08-28T07:36:23.998Z,23.36
2016-08-28T07:37:22.162Z,23.33
2016-08-28T07:38:38.003Z,23.33
2016-08-28T07:39:23.022Z,23.33
2016-08-28T07:40:30.763Z,23.34
2016-08-28T07:41:37.774Z,23.34
2016-08-28T07:42:33.053Z,23.34
2016-08-28T07:43:43.097Z,23.34
2016-08-28T07:44:24.672Z,23.34
2016-08-28T07:45:30.758Z,23.35
2016-08-28T07:46:32.165Z,23.35
2016-08-28T07:47:32.874Z,23.35
2016-08-28T07:48:34.678Z,23.35
2016-08-28T07:49:37.821Z,23.35
2016-08-28T07:50:33.478Z,23.36
2016-08-28T07:51:32.161Z,23.36
2016-08-28T07:52:37.385Z,23.36
2016-08-28T07:53:33.506Z,23.36
2016-08-28T07:54:31.096Z,23.35
2016-08-28T07:55:25.414Z,23.36
2016-08-28T07:56:26.081Z,23.36
2016-08-28T07:57:26.525Z,23.36
2016-08-28T07:58:31.385Z,23.36
2016-08-28T07:59:33.999Z,23.36
2016-08-28T08:00:31.260Z,23.36
2016-08-28T08:01:32.433Z,23.36
2016-08-28T08:02:44.407Z,23.37
2016-08-28T08:03:26.824Z,23.37
2016-08-28T08:04:34.546Z,23.37
2016-08-28T08:05:28.681Z,23.36
2016-08-28T08:06:33.936Z,23.37
2016-08-28T08:07:42.435Z,23.36
2016-08-28T08:08:23.471Z,23.37
2016-08-28T08:09:31.834Z,23.37
2016-08-28T08:10:24.965Z,23.37
2016-08-28T08:11:38.511Z,23.37
2016-08-28T08:12:25.187Z,23.37
2016-08-28T08:13:30.374Z,23.37
2016-08-28T08:14:22.673Z,23.37
2016-08-28T08:15:27.657Z,23.37
2016-08-28T08:16:29.397Z,23.37
2016-08-28T08:17:33.012Z,23.37
2016-08-28T08:18:24.578Z,23.38
2016-08-28T08:19:32.203Z,23.38
2016-08-28T08:20:13.236Z,23.38
2016-08-28T08:21:33.909Z,23.38
2016-08-28T08:22:26.089Z,23.37
2016-08-28T08:23:25.805Z,23.38
2016-08-28T08:24:27.216Z,23.38
2016-08-28T08:25:24.052Z,23.38
2016-08-28T08:26:34.074Z,23.38
2016-08-28T08:27:38.339Z,23.38
2016-08-28T08:28:22.539Z,23.39
2016-08-28T08:29:39.882Z,23.38
2016-08-28T08:30:23.630Z,23.39
2016-08-28T08:31:28.546Z,23.38
2016-08-28T08:32:27.383Z,23.40
2016-08-28T08:33:32.253Z,23.39
2016-08-28T08:34:22.084Z,23.39
2016-08-28T08:35:34.436Z,23.43
2016-08-28T08:36:26.476Z,23.39
2016-08-28T08:37:28.660Z,23.40
2016-08-28T08:38:38.037Z,23.40
2016-08-28T08:39:13.365Z,23.39
2016-08-28T08:40:25.116Z,23.40
2016-08-28T08:41:33.279Z,23.42
2016-08-28T08:42:38.555Z,23.39
2016-08-28T08:43:32.178Z,23.47
2016-08-28T08:44:30.851Z,23.39
2016-08-28T08:45:31.868Z,23.40
2016-08-28T08:46:38.723Z,23.40
2016-08-28T08:47:38.945Z,23.39
2016-08-28T08:48:34.014Z,23.42
2016-08-28T08:49:38.566Z,23.40
2016-08-28T08:50:29.263Z,23.40
2016-08-28T08:51:28.937Z,23.40
2016-08-28T08:52:31.233Z,23.40
2016-08-28T08:53:21.305Z,23.41
2016-08-28T08:54:31.297Z,23.41
2016-08-28T08:55:33.712Z,23.41
2016-08-28T08:56:29.811Z,23.41
2016-08-28T08:57:29.370Z,23.41
2016-08-28T08:58:22.812Z,23.41
2016-08-28T08:59:14.986Z,23.41
2016-08-28T09:00:35.167Z,23.41
2016-08-28T09:01:28.591Z,23.41
2016-08-28T09:02:27.697Z,23.41
2016-08-28T09:03:48.299Z,23.41
2016-08-28T09:04:33.724Z,23.41
2016-08-28T09:05:40.632Z,23.42
2016-08-28T09:06:31.848Z,23.43
2016-08-28T09:07:24.158Z,23.42
2016-08-28T09:08:33.756Z,23.42
2016-08-28T09:09:39.235Z,23.42
2016-08-28T09:10:35.854Z,23.42
2016-08-28T09:11:38.810Z,23.42
2016-08-28T09:12:39.607Z,23.42
2016-08-28T09:13:34.436Z,23.42
2016-08-28T09:14:40.365Z,23.42
2016-08-28T09:15:33.935Z,23.43
2016-08-28T09:16:30.880Z,23.43
2016-08-28T09:17:47.397Z,23.43
2016-08-28T09:18:32.867Z,23.42
2016-08-28T09:19:21.198Z,23.43
2016-08-28T09:20:22.629Z,23.45
2016-08-28T09:21:11.516Z,23.43
2016-08-28T09:22:16.165Z,23.43
2016-08-28T09:23:13.588Z,23.44
2016-08-28T09:24:11.817Z,23.44
2016-08-28T09:25:14.346Z,23.44
2016-08-28T09:26:20.503Z,23.45
2016-08-28T09:27:17.464Z,23.45
2016-08-28T09:28:19.331Z,23.45
2016-08-28T09:29:13.503Z,23.46
2016-08-28T09:30:13.686Z,23.46
2016-08-28T09:31:14.023Z,23.45
2016-08-28T09:32:14.047Z,24.01
2016-08-28T09:33:19.347Z,24.06
2016-08-28T09:34:29.783Z,23.74
2016-08-28T09:35:32.928Z,23.56
2016-08-28T09:36:22.720Z,23.52
2016-08-28T09:37:21.351Z,23.50
2016-08-28T09:38:15.516Z,23.55
2016-08-28T09:39:21.451Z,23.52
2016-08-28T09:40:23.861Z,23.48
2016-08-28T09:41:21.913Z,23.46
2016-08-28T09:42:21.595Z,23.47
2016-08-28T09:43:21.610Z,23.50
2016-08-28T09:44:22.147Z,23.47
2016-08-28T09:45:23.121Z,23.47
2016-08-28T09:46:16.310Z,23.46
2016-08-28T09:47:34.095Z,23.46
2016-08-28T09:48:27.338Z,23.46
2016-08-28T09:49:33.324Z,23.47
2016-08-28T09:50:35.471Z,23.47
2016-08-28T09:51:15.856Z,23.47
2016-08-28T09:52:22.393Z,23.46
2016-08-28T09:53:33.023Z,23.47
2016-08-28T09:54:21.186Z,23.48
2016-08-28T09:55:17.057Z,23.48
2016-08-28T09:56:13.723Z,23.52
2016-08-28T09:57:14.979Z,23.52
2016-08-28T09:58:23.322Z,23.49
2016-08-28T09:59:17.034Z,23.52
2016-08-28T10:00:20.979Z,23.49
2016-08-28T10:01:15.457Z,23.49
2016-08-28T10:02:37.249Z,23.50
2016-08-28T10:03:20.977Z,23.50
2016-08-28T10:04:15.434Z,23.50
2016-08-28T10:05:28.666Z,23.50
2016-08-28T10:06:14.251Z,23.50
2016-08-28T10:07:14.544Z,23.50
2016-08-28T10:08:22.046Z,23.49
2016-08-28T10:09:23.150Z,23.49
2016-08-28T10:10:15.724Z,23.50
2016-08-28T10:11:21.705Z,23.49
2016-08-28T10:12:21.045Z,23.50
2016-08-28T10:13:16.027Z,23.51
2016-08-28T10:14:13.344Z,23.51
2016-08-28T10:15:23.260Z,23.51
2016-08-28T10:16:16.721Z,23.50
2016-08-28T10:17:21.836Z,23.50
2016-08-28T10:18:24.098Z,23.50
2016-08-28T10:19:19.721Z,23.53
2016-08-28T10:20:21.318Z,23.49
2016-08-28T10:21:11.734Z,23.48
2016-08-28T10:22:25.326Z,24.04
2016-08-28T10:23:21.455Z,24.09
2016-08-28T10:24:21.588Z,24.10
2016-08-28T10:25:22.290Z,24.12
2016-08-28T10:26:16.156Z,24.13
2016-08-28T10:27:31.952Z,24.12
2016-08-28T10:28:22.411Z,24.12
2016-08-28T10:29:19.819Z,24.16
2016-08-28T10:30:14.016Z,24.19
2016-08-28T10:31:15.524Z,24.18
2016-08-28T10:32:19.972Z,24.18
2016-08-28T10:33:13.469Z,24.18
2016-08-28T10:34:32.458Z,23.84
2016-08-28T10:35:22.315Z,23.65
2016-08-28T10:36:17.842Z,23.60
2016-08-28T10:37:21.554Z,23.56
2016-08-28T10:38:13.957Z,23.53
2016-08-28T10:39:13.681Z,23.53
2016-08-28T10:40:22.885Z,23.52
2016-08-28T10:41:24.842Z,23.52
2016-08-28T10:42:21.917Z,23.56
2016-08-28T10:43:19.872Z,23.73
2016-08-28T10:44:19.838Z,23.56
2016-08-28T10:45:20.507Z,23.53
2016-08-28T10:46:16.183Z,23.51
2016-08-28T10:47:27.266Z,23.50
2016-08-28T10:48:24.057Z,23.50
2016-08-28T10:49:15.503Z,23.50
2016-08-28T10:50:28.461Z,23.49
2016-08-28T10:51:26.871Z,23.49
2016-08-28T10:52:16.392Z,23.49
2016-08-28T10:53:17.624Z,23.53
2016-08-28T10:54:13.257Z,23.53
2016-08-28T10:55:15.489Z,23.48
2016-08-28T10:56:17.472Z,23.51
2016-08-28T10:57:22.112Z,23.47
2016-08-28T10:58:16.999Z,23.47
2016-08-28T10:59:33.406Z,23.48
2016-08-28T11:00:14.552Z,23.47
2016-08-28T11:01:15.112Z,23.47
2016-08-28T11:02:19.080Z,23.47
2016-08-28T11:03:20.564Z,23.47
2016-08-28T11:04:20.027Z,23.46
2016-08-28T11:05:14.469Z,23.50
2016-08-28T11:06:15.292Z,24.01
2016-08-28T11:07:15.018Z,23.51
2016-08-28T11:08:15.704Z,23.49
2016-08-28T11:09:15.656Z,23.48
2016-08-28T11:10:23.375Z,23.47
2016-08-28T11:11:14.097Z,23.47
2016-08-28T11:12:16.420Z,23.48
2016-08-28T11:13:13.554Z,23.47
2016-08-28T11:14:19.690Z,23.47
2016-08-28T11:15:15.573Z,23.46
2016-08-28T11:16:22.742Z,23.46
2016-08-28T11:17:14.664Z,23.47
2016-08-28T11:18:16.201Z,23.47
2016-08-28T11:19:16.594Z,23.47
2016-08-28T11:20:21.983Z,23.46
2016-08-28T11:21:16.908Z,23.46
2016-08-28T11:22:16.651Z,23.46
2016-08-28T11:23:13.155Z,23.46
2016-08-28T11:24:24.727Z,23.47
2016-08-28T11:25:15.818Z,23.48
2016-08-28T11:26:16.263Z,23.48
2016-08-28T11:27:15.557Z,23.49
2016-08-28T11:28:21.011Z,23.50
2016-08-28T11:29:19.356Z,23.50
2016-08-28T11:30:13.258Z,23.51
2016-08-28T11:31:18.699Z,23.51
2016-08-28T11:32:12.856Z,23.53
2016-08-28T11:33:18.222Z,23.55
2016-08-28T11:34:12.726Z,23.53
2016-08-28T11:35:19.408Z,23.53
2016-08-28T11:36:18.097Z,23.53
2016-08-28T11:37:16.848Z,23.54
2016-08-28T11:38:16.728Z,23.53
2016-08-28T11:39:17.320Z,23.54
2016-08-28T11:40:14.698Z,23.54
2016-08-28T11:41:13.791Z,23.56
2016-08-28T11:42:20.474Z,23.56
2016-08-28T11:43:39.995Z,23.56
2016-08-28T11:44:14.543Z,23.56
2016-08-28T11:45:22.857Z,23.57
2016-08-28T11:46:20.566Z,23.58
2016-08-28T11:47:15.761Z,23.56
2016-08-28T11:48:21.735Z,23.61
2016-08-28T11:49:24.918Z,24.11
2016-08-28T11:50:19.029Z,24.16
2016-08-28T11:51:32.445Z,23.67
2016-08-28T11:52:29.915Z,23.64
2016-08-28T11:53:17.570Z,23.63
2016-08-28T11:54:19.833Z,23.62
2016-08-28T11:55:15.306Z,23.61
2016-08-28T11:56:23.177Z,23.61
2016-08-28T11:57:20.239Z,23.61
2016-08-28T11:58:23.318Z,23.64
2016-08-28T11:59:33.155Z,23.61
2016-08-28T12:00:17.244Z,23.62
2016-08-28T12:01:27.377Z,23.62
2016-08-28T12:02:20.069Z,23.62
2016-08-28T12:03:14.550Z,23.61
2016-08-28T12:04:17.341Z,23.61
2016-08-28T12:05:12.870Z,23.62
2016-08-28T12:06:16.467Z,23.62
2016-08-28T12:07:16.803Z,23.62
2016-08-28T12:08:18.208Z,23.63
2016-08-28T12:09:13.612Z,23.62
2016-08-28T12:10:25.363Z,23.62
2016-08-28T12:11:24.233Z,23.63
2016-08-28T12:12:16.707Z,23.63
2016-08-28T12:13:21.012Z,23.60
2016-08-28T12:14:17.194Z,23.63
2016-08-28T12:15:19.867Z,23.62
2016-08-28T12:16:18.860Z,23.63
2016-08-28T12:17:21.260Z,23.63
2016-08-28T12:18:22.219Z,23.63
2016-08-28T12:19:18.612Z,23.65
2016-08-28T12:20:21.072Z,23.63
2016-08-28T12:21:32.355Z,23.66
2016-08-28T12:22:12.521Z,23.63
2016-08-28T12:23:27.084Z,23.63
2016-08-28T12:24:22.186Z,23.67
2016-08-28T12:25:21.276Z,23.63
2016-08-28T12:26:14.810Z,23.63
2016-08-28T12:27:17.833Z,23.63
2016-08-28T12:28:26.279Z,23.63
2016-08-28T12:29:22.554Z,23.63
2016-08-28T12:30:24.911Z,23.65
2016-08-28T12:31:21.723Z,23.63
2016-08-28T12:32:17.657Z,23.66
2016-08-28T12:33:21.653Z,23.63
2016-08-28T12:34:24.163Z,23.63
2016-08-28T12:35:18.393Z,23.63
2016-08-28T12:36:16.652Z,23.63
2016-08-28T12:37:22.177Z,23.63
2016-08-28T12:38:15.074Z,23.63
2016-08-28T12:39:19.281Z,23.63
2016-08-28T12:40:14.504Z,23.63
2016-08-28T12:41:17.005Z,23.63
2016-08-28T12:42:17.480Z,23.64
2016-08-28T12:43:19.331Z,23.62
2016-08-28T12:44:21.349Z,23.63
2016-08-28T12:45:16.872Z,23.65
2016-08-28T12:46:20.156Z,23.63
2016-08-28T12:47:21.380Z,23.63
2016-08-28T12:48:16.276Z,23.62
2016-08-28T12:49:15.921Z,23.83
2016-08-28T12:50:20.526Z,23.69
2016-08-28T12:51:17.508Z,23.66
2016-08-28T12:52:17.353Z,23.65
2016-08-28T12:53:17.138Z,23.65